Time;durP1;ratioP1;P1;durP2;ratioP2;P2;SDS_P1;SDS_P2;PMS_P1;PMS_P2;Temp;Humidity;BMP_temperature;BMP_pressure;BME280_temperature;BME280_humidity;BME280_pressure;Samples;Min_cycle;Max_cycle;Signal;HPM_P1;HPM_P2
2022/03/12 00:00:36;;;;;;;10.35;6.20;;;-6.00;92.30;;;;;;5095142;28;20468;-82
2022/03/12 00:03:02;;;;;;;13.88;7.47;;;-6.10;92.70;;;;;;5096396;28;20102;-82
2022/03/12 00:05:30;;;;;;;18.20;7.90;;;-6.10;93.00;;;;;;5093830;28;20115;-81
2022/03/12 00:07:58;;;;;;;15.13;6.80;;;-6.10;93.10;;;;;;5094488;28;20034;-82
2022/03/12 00:10:24;;;;;;;15.15;7.00;;;-6.10;93.10;;;;;;5098150;28;20032;-82
2022/03/12 00:12:50;;;;;;;15.25;6.55;;;-6.10;93.20;;;;;;5098093;28;20016;-82
2022/03/12 00:15:16;;;;;;;14.10;6.78;;;-6.00;93.00;;;;;;5097644;28;20016;-82
2022/03/12 00:17:46;;;;;;;12.75;6.32;;;-6.10;92.90;;;;;;5099188;28;20016;-83
2022/03/12 00:20:18;;;;;;;18.02;6.60;;;-6.10;92.80;;;;;;5098803;28;20475;-82
2022/03/12 00:22:47;;;;;;;20.92;6.70;;;-6.10;92.80;;;;;;5098328;28;20020;-82
2022/03/12 00:25:14;;;;;;;21.55;7.97;;;-6.10;92.90;;;;;;5097788;28;20035;-82
2022/03/12 00:27:41;;;;;;;13.60;7.07;;;-6.20;93.10;;;;;;5097464;28;20123;-82
2022/03/12 00:30:09;;;;;;;16.40;7.72;;;-6.10;93.00;;;;;;5097791;28;20028;-82
2022/03/12 00:32:38;;;;;;;19.33;8.30;;;-6.20;93.00;;;;;;5098178;28;20119;-83
2022/03/12 00:35:05;;;;;;;13.77;8.00;;;-6.20;93.30;;;;;;5097595;28;20027;-82
2022/03/12 00:37:30;;;;;;;18.08;7.20;;;-6.30;93.50;;;;;;5097106;28;20078;-81
2022/03/12 00:39:56;;;;;;;16.67;7.60;;;-6.40;93.90;;;;;;5097636;28;20376;-83
2022/03/12 00:42:22;;;;;;;18.38;8.57;;;-6.40;94.10;;;;;;5097469;28;20020;-81
2022/03/12 00:44:48;;;;;;;19.35;7.85;;;-6.50;94.20;;;;;;5097306;28;20028;-82
2022/03/12 00:47:13;;;;;;;27.52;9.13;;;-6.50;94.20;;;;;;5096891;28;20476;-82
2022/03/12 00:49:39;;;;;;;16.23;7.80;;;-6.50;94.40;;;;;;5097050;28;20024;-82
2022/03/12 00:52:05;;;;;;;20.95;7.88;;;-6.50;94.50;;;;;;5097284;28;20471;-82
2022/03/12 00:54:31;;;;;;;15.57;7.30;;;-6.40;94.50;;;;;;5097069;28;20022;-81
2022/03/12 00:56:56;;;;;;;20.20;7.97;;;-6.50;94.50;;;;;;5097221;28;20028;-82
2022/03/12 00:59:22;;;;;;;15.85;6.65;;;-6.50;94.50;;;;;;5097185;28;20107;-83
2022/03/12 01:01:48;;;;;;;17.02;8.18;;;-6.50;94.80;;;;;;5097264;28;20028;-82
2022/03/12 01:04:13;;;;;;;19.25;8.80;;;-6.50;95.00;;;;;;5096883;28;20024;-83
2022/03/12 01:06:40;;;;;;;20.75;8.20;;;-6.50;95.20;;;;;;5096943;28;20028;-82
2022/03/12 01:09:06;;;;;;;24.67;9.02;;;-6.50;95.30;;;;;;5096586;28;20542;-83
2022/03/12 01:11:34;;;;;;;17.38;8.57;;;-6.50;95.20;;;;;;5096726;28;20024;-82
2022/03/12 01:14:00;;;;;;;16.60;7.78;;;-6.60;95.20;;;;;;5096603;28;20019;-82
2022/03/12 01:16:26;;;;;;;19.33;8.57;;;-6.70;95.20;;;;;;5096916;28;20115;-82
2022/03/12 01:18:51;;;;;;;20.13;7.53;;;-6.70;95.20;;;;;;5096509;28;20119;-83
2022/03/12 01:21:19;;;;;;;29.95;10.85;;;-6.60;95.20;;;;;;5096393;28;20031;-83
2022/03/12 01:23:47;;;;;;;37.28;12.43;;;-6.60;95.10;;;;;;5096582;28;20052;-83
2022/03/12 01:26:12;;;;;;;21.30;8.52;;;-6.60;95.10;;;;;;5097482;28;20103;-82
2022/03/12 01:28:38;;;;;;;15.02;7.35;;;-6.60;95.00;;;;;;5096057;28;20052;-82
2022/03/12 01:31:05;;;;;;;14.68;7.28;;;-6.60;94.90;;;;;;5097035;28;20455;-82
2022/03/12 01:33:31;;;;;;;19.88;8.68;;;-6.70;94.90;;;;;;5096667;28;20032;-82
2022/03/12 01:35:57;;;;;;;20.27;7.63;;;-6.60;95.20;;;;;;5095866;28;20016;-83
2022/03/12 01:38:48;;;;;;;18.60;7.63;;;-6.70;95.40;;;;;;5096415;28;20017;-83
2022/03/12 01:41:18;;;;;;;14.50;7.97;;;-6.80;95.60;;;;;;5096218;28;20024;-83
2022/03/12 01:43:44;;;;;;;19.02;8.00;;;-6.80;95.70;;;;;;5097229;28;20031;-82
2022/03/12 01:46:11;;;;;;;16.77;7.63;;;-6.80;95.70;;;;;;5095985;28;20031;-82
2022/03/12 01:48:44;;;;;;;18.20;8.00;;;-6.80;95.70;;;;;;5096150;28;20467;-82
2022/03/12 01:51:09;;;;;;;15.45;7.35;;;-6.80;95.60;;;;;;5096287;28;20069;-82
2022/03/12 01:53:35;;;;;;;21.17;8.15;;;-6.80;95.60;;;;;;5095585;28;20024;-83
2022/03/12 01:56:01;;;;;;;15.80;7.22;;;-6.80;95.50;;;;;;5095889;28;20115;-83
2022/03/12 01:58:27;;;;;;;15.70;7.03;;;-6.90;95.50;;;;;;5095145;28;20148;-84
2022/03/12 02:00:53;;;;;;;11.93;6.25;;;-7.00;95.60;;;;;;5094240;28;20045;-84
2022/03/12 02:03:28;;;;;;;21.65;7.88;;;-7.00;95.80;;;;;;5094597;28;20090;-83
2022/03/12 02:05:55;;;;;;;14.80;7.57;;;-6.90;96.00;;;;;;5094512;28;20024;-82
2022/03/12 02:08:21;;;;;;;14.32;7.43;;;-7.00;96.00;;;;;;5094582;28;20036;-82
2022/03/12 02:10:49;;;;;;;19.13;7.63;;;-7.00;96.00;;;;;;5096061;28;20459;-81
2022/03/12 02:13:14;;;;;;;17.35;8.25;;;-6.90;96.00;;;;;;5094385;28;20424;-82
2022/03/12 02:15:41;;;;;;;16.98;8.05;;;-6.90;95.90;;;;;;5095264;28;20048;-82
2022/03/12 02:18:07;;;;;;;17.35;8.05;;;-6.90;95.90;;;;;;5094699;28;20028;-82
2022/03/12 02:20:33;;;;;;;14.45;7.53;;;-7.00;96.00;;;;;;5095052;28;20016;-82
2022/03/12 02:22:59;;;;;;;15.35;7.22;;;-7.00;95.90;;;;;;5095949;28;20173;-82
2022/03/12 02:25:31;;;;;;;22.60;7.95;;;-7.00;96.00;;;;;;5095446;28;20080;-83
2022/03/12 02:27:59;;;;;;;13.65;7.05;;;-7.00;96.20;;;;;;5096001;28;20036;-84
2022/03/12 02:30:33;;;;;;;15.27;7.32;;;-7.00;96.10;;;;;;5094765;28;20028;-84
2022/03/12 02:33:01;;;;;;;18.15;7.68;;;-7.00;96.00;;;;;;5095619;28;20032;-81
2022/03/12 02:35:31;;;;;;;17.58;7.95;;;-7.10;96.00;;;;;;5095266;28;20427;-81
2022/03/12 02:37:58;;;;;;;14.77;7.22;;;-7.00;96.10;;;;;;5096028;28;20028;-83
2022/03/12 02:40:24;;;;;;;16.27;6.90;;;-7.10;96.20;;;;;;5095547;28;20024;-82
2022/03/12 02:42:53;;;;;;;17.13;7.97;;;-7.10;96.40;;;;;;5096481;28;20024;-83
2022/03/12 02:45:19;;;;;;;15.05;6.97;;;-7.10;96.50;;;;;;5095100;28;20456;-83
2022/03/12 02:47:47;;;;;;;17.40;7.25;;;-7.10;96.50;;;;;;5094895;28;20499;-81
2022/03/12 02:50:14;;;;;;;16.88;6.10;;;-7.10;96.50;;;;;;5095006;28;20063;-81
2022/03/12 02:52:42;;;;;;;11.25;6.75;;;-7.00;96.30;;;;;;5096084;28;20028;-82
2022/03/12 02:55:15;;;;;;;12.52;6.40;;;-7.10;96.10;;;;;;5095303;28;20028;-82
2022/03/12 02:57:43;;;;;;;13.68;6.75;;;-7.10;96.20;;;;;;5096302;28;20035;-83
2022/03/12 03:00:10;;;;;;;17.00;7.75;;;-7.10;96.40;;;;;;5095263;28;20028;-82
2022/03/12 03:02:39;;;;;;;17.02;7.03;;;-7.20;96.80;;;;;;5094452;28;20032;-83
2022/03/12 03:08:04;;;;;;;12.45;6.90;;;-7.30;97.00;;;;;;5096027;28;20395;-82
2022/03/12 03:10:40;;;;;;;19.98;8.07;;;-7.20;97.00;;;;;;5095028;28;20074;-81
2022/03/12 03:13:34;;;;;;;16.27;6.82;;;-7.30;97.00;;;;;;5094394;28;20020;-84
2022/03/12 03:16:10;;;;;;;15.38;6.97;;;-7.30;97.20;;;;;;5091301;28;20454;-84
2022/03/12 03:18:39;;;;;;;13.88;6.72;;;-7.30;97.30;;;;;;5094338;28;20028;-83
2022/03/12 03:21:12;;;;;;;13.80;7.00;;;-7.40;97.30;;;;;;5094644;28;20028;-81
2022/03/12 03:23:38;;;;;;;12.50;6.47;;;-7.40;97.50;;;;;;5094931;28;20475;-81
2022/03/12 03:26:04;;;;;;;13.35;7.15;;;-7.40;97.30;;;;;;5094116;28;20024;-81
2022/03/12 03:28:30;;;;;;;12.30;6.47;;;-7.40;97.30;;;;;;5094219;28;20130;-83
2022/03/12 03:30:56;;;;;;;17.50;7.80;;;-7.40;97.10;;;;;;5094243;28;20467;-83
2022/03/12 03:33:23;;;;;;;13.45;6.90;;;-7.40;96.80;;;;;;5095889;28;20028;-83
2022/03/12 03:35:50;;;;;;;12.77;6.63;;;-7.40;96.90;;;;;;5095321;28;20085;-82
2022/03/12 03:38:16;;;;;;;14.48;7.45;;;-7.40;96.80;;;;;;5094556;28;20020;-82
2022/03/12 03:40:43;;;;;;;16.38;6.93;;;-7.40;96.90;;;;;;5094082;28;20032;-82
2022/03/12 03:43:13;;;;;;;13.88;6.95;;;-7.50;97.00;;;;;;5094537;28;20024;-82
2022/03/12 03:45:40;;;;;;;17.13;7.32;;;-7.50;97.20;;;;;;5093777;28;20028;-81
2022/03/12 03:48:11;;;;;;;13.05;6.95;;;-7.50;97.50;;;;;;5095347;28;20036;-81
2022/03/12 03:50:36;;;;;;;13.07;6.20;;;-7.50;97.50;;;;;;5093897;28;20035;-81
2022/03/12 03:53:03;;;;;;;10.77;5.57;;;-7.50;97.30;;;;;;5095308;28;20027;-83
2022/03/12 03:55:33;;;;;;;13.80;6.70;;;-7.40;97.20;;;;;;5093945;28;20051;-81
2022/03/12 03:58:00;;;;;;;17.92;6.85;;;-7.50;96.90;;;;;;5093726;28;20073;-81
2022/03/12 04:00:27;;;;;;;17.30;6.68;;;-7.50;96.90;;;;;;5093956;28;20024;-84
2022/03/12 04:03:04;;;;;;;11.13;5.80;;;-7.50;97.10;;;;;;5094065;28;20024;-83
2022/03/12 04:05:37;;;;;;;17.85;8.07;;;-7.50;97.10;;;;;;5094606;28;20032;-81
2022/03/12 04:08:06;;;;;;;16.83;7.28;;;-7.50;97.10;;;;;;5093735;28;20042;-83
2022/03/12 04:10:33;;;;;;;12.85;6.35;;;-7.50;97.20;;;;;;5094383;28;20050;-82
2022/03/12 04:12:59;;;;;;;14.30;7.15;;;-7.50;97.30;;;;;;5094763;28;20081;-83
2022/03/12 04:15:25;;;;;;;18.13;6.80;;;-7.50;97.40;;;;;;5093671;28;20028;-83
2022/03/12 04:17:53;;;;;;;12.48;6.85;;;-7.50;97.20;;;;;;5095193;28;20024;-83
2022/03/12 04:20:20;;;;;;;12.40;5.80;;;-7.60;97.10;;;;;;5093910;28;20360;-83
2022/03/12 04:22:47;;;;;;;18.67;7.95;;;-7.60;97.00;;;;;;5094111;28;20374;-82
2022/03/12 04:25:14;;;;;;;22.08;7.32;;;-7.60;97.00;;;;;;5093968;28;20042;-83
2022/03/12 04:27:44;;;;;;;15.52;6.80;;;-7.60;97.50;;;;;;5094978;28;20505;-84
2022/03/12 04:30:14;;;;;;;19.35;7.15;;;-7.70;97.30;;;;;;5093825;28;20024;-82
2022/03/12 04:32:42;;;;;;;13.57;6.60;;;-7.70;97.20;;;;;;5094059;28;20021;-82
2022/03/12 04:35:09;;;;;;;13.15;6.82;;;-7.60;97.20;;;;;;5093704;28;20025;-82
2022/03/12 04:37:35;;;;;;;12.18;6.25;;;-7.70;97.10;;;;;;5093503;28;20524;-83
2022/03/12 04:40:10;;;;;;;12.63;5.88;;;-7.70;97.20;;;;;;5093655;28;20024;-82
2022/03/12 04:42:42;;;;;;;13.98;6.35;;;-7.70;97.10;;;;;;5093610;28;20104;-82
2022/03/12 04:45:10;;;;;;;15.05;6.35;;;-7.70;97.00;;;;;;5094595;28;20050;-83
2022/03/12 04:47:36;;;;;;;10.95;4.97;;;-7.70;96.90;;;;;;5093422;28;20068;-83
2022/03/12 04:50:05;;;;;;;10.18;4.68;;;-7.80;96.80;;;;;;5093762;28;20050;-81
2022/03/12 04:52:32;;;;;;;12.70;6.15;;;-7.80;96.80;;;;;;5090035;28;20031;-82
2022/03/12 04:54:58;;;;;;;10.50;4.85;;;-7.80;96.80;;;;;;5095797;28;20069;-82
2022/03/12 04:57:24;;;;;;;7.43;5.38;;;-7.90;96.90;;;;;;5098108;28;20459;-83
2022/03/12 04:59:49;;;;;;;12.80;6.60;;;-7.90;96.90;;;;;;5098314;28;20099;-82
2022/03/12 05:02:15;;;;;;;14.10;6.47;;;-7.90;97.00;;;;;;5098064;28;20047;-82
2022/03/12 05:04:41;;;;;;;18.33;7.32;;;-7.90;97.30;;;;;;5097677;28;20050;-83
2022/03/12 05:07:14;;;;;;;13.68;6.70;;;-7.90;97.50;;;;;;5096831;28;20511;-82
2022/03/12 05:09:40;;;;;;;12.98;6.50;;;-7.90;97.50;;;;;;5097088;28;20074;-82
2022/03/12 05:12:08;;;;;;;9.60;5.40;;;-7.90;97.60;;;;;;5096824;28;20028;-82
2022/03/12 05:14:36;;;;;;;17.85;6.95;;;-7.90;97.60;;;;;;5097151;28;20069;-82
2022/03/12 05:17:05;;;;;;;12.50;6.38;;;-7.90;97.50;;;;;;5096481;28;20062;-81
2022/03/12 05:19:35;;;;;;;15.48;7.38;;;-7.90;97.60;;;;;;5097772;28;20383;-81
2022/03/12 05:22:03;;;;;;;18.90;8.75;;;-7.90;97.70;;;;;;5096441;28;20024;-83
2022/03/12 05:24:28;;;;;;;15.25;7.88;;;-7.90;98.00;;;;;;5096174;28;20017;-82
2022/03/12 05:26:54;;;;;;;13.65;6.65;;;-7.90;98.20;;;;;;5096037;28;20462;-83
2022/03/12 05:29:22;;;;;;;17.70;7.65;;;-7.90;98.30;;;;;;5096371;28;20024;-82
2022/03/12 05:31:47;;;;;;;14.68;6.85;;;-7.90;98.50;;;;;;5096233;28;20027;-83
2022/03/12 05:34:13;;;;;;;16.13;7.40;;;-7.90;98.40;;;;;;5097223;28;20477;-83
2022/03/12 05:36:39;;;;;;;16.23;8.07;;;-7.90;98.80;;;;;;5096588;28;20438;-82
2022/03/12 05:39:04;;;;;;;19.73;8.38;;;-7.90;99.10;;;;;;5096705;28;20020;-82
2022/03/12 05:41:31;;;;;;;21.58;9.15;;;-7.90;99.30;;;;;;5096041;28;20379;-82
2022/03/12 05:43:57;;;;;;;18.42;7.68;;;-7.90;99.50;;;;;;5096455;28;20024;-82
2022/03/12 05:46:23;;;;;;;17.17;8.45;;;-7.90;99.60;;;;;;5097148;28;20132;-82
2022/03/12 05:48:49;;;;;;;29.27;13.02;;;-7.80;99.70;;;;;;5096244;28;20032;-83
2022/03/12 05:51:14;;;;;;;18.80;8.80;;;-7.70;99.40;;;;;;5096102;28;20447;-83
2022/03/12 05:53:40;;;;;;;18.83;8.98;;;-7.70;99.10;;;;;;5096038;28;20459;-85
2022/03/12 05:56:06;;;;;;;21.38;9.10;;;-7.70;99.10;;;;;;5096399;28;20031;-82
2022/03/12 05:58:38;;;;;;;17.17;8.10;;;-7.60;99.20;;;;;;5096219;28;20031;-82
2022/03/12 06:01:04;;;;;;;13.23;8.00;;;-7.60;99.30;;;;;;5096319;28;20117;-82
2022/03/12 06:03:32;;;;;;;21.27;11.70;;;-7.50;99.40;;;;;;5101495;28;20031;-83
2022/03/12 06:05:59;;;;;;;29.75;12.00;;;-7.50;99.60;;;;;;5108231;28;20028;-83
2022/03/12 06:08:29;;;;;;;27.95;12.00;;;-7.30;99.50;;;;;;5109399;28;20043;-84
2022/03/12 06:10:57;;;;;;;25.75;10.52;;;-6.10;99.90;;;;;;5111490;28;20053;-85
2022/03/12 06:13:25;;;;;;;18.65;9.32;;;-6.00;99.90;;;;;;5105238;28;20024;-82
2022/03/12 06:16:02;;;;;;;18.77;8.82;;;-6.10;99.90;;;;;;5095760;28;20051;-83
2022/03/12 06:18:33;;;;;;;16.15;8.00;;;-6.20;99.90;;;;;;5095206;28;20500;-81
2022/03/12 06:21:00;;;;;;;15.02;7.90;;;-6.20;99.90;;;;;;5094999;28;20161;-82
2022/03/12 06:23:28;;;;;;;16.88;7.88;;;-6.30;99.60;;;;;;5095201;28;20028;-84
2022/03/12 06:25:55;;;;;;;20.92;8.65;;;-6.30;99.30;;;;;;5095273;28;20031;-81
2022/03/12 06:28:21;;;;;;;17.45;8.43;;;-6.30;98.90;;;;;;5095124;28;20035;-82
2022/03/12 06:30:48;;;;;;;15.75;8.13;;;-6.20;98.70;;;;;;5095631;28;20024;-83
2022/03/12 06:33:18;;;;;;;22.02;9.52;;;-6.20;98.50;;;;;;5095131;28;20024;-82
2022/03/12 06:35:44;;;;;;;13.57;8.20;;;-6.20;98.20;;;;;;5094896;28;20027;-81
2022/03/12 06:38:10;;;;;;;17.27;8.32;;;-6.10;98.10;;;;;;5094592;28;20028;-82
2022/03/12 06:40:36;;;;;;;20.60;8.95;;;-6.00;97.90;;;;;;5094519;28;20028;-83
2022/03/12 06:43:09;;;;;;;26.98;12.48;;;-6.00;97.60;;;;;;5094614;28;20475;-82
2022/03/12 06:45:35;;;;;;;21.52;11.40;;;-5.80;97.80;;;;;;5094248;28;20543;-83
2022/03/12 06:48:01;;;;;;;18.58;9.18;;;-5.70;97.70;;;;;;5094734;28;20052;-82
2022/03/12 06:50:28;;;;;;;19.00;8.35;;;-5.60;97.10;;;;;;5095465;28;20020;-83
2022/03/12 06:52:55;;;;;;;15.15;7.40;;;-5.50;96.50;;;;;;5095700;28;20031;-83
2022/03/12 06:55:23;;;;;;;17.33;7.88;;;-5.40;95.70;;;;;;5094823;28;20020;-83
2022/03/12 06:57:51;;;;;;;16.63;8.38;;;-5.30;95.10;;;;;;5095062;28;20089;-85
2022/03/12 07:00:21;;;;;;;21.15;10.38;;;-5.20;94.40;;;;;;5095263;28;20056;-83
2022/03/12 07:02:47;;;;;;;17.70;9.88;;;-5.10;93.60;;;;;;5094990;28;20020;-83
2022/03/12 07:05:13;;;;;;;17.33;9.77;;;-4.90;93.10;;;;;;5095083;28;20024;-84
2022/03/12 07:07:39;;;;;;;17.92;8.40;;;-4.80;93.00;;;;;;5095073;28;20093;-85
2022/03/12 07:10:06;;;;;;;15.35;7.47;;;-4.70;92.70;;;;;;5094799;28;20024;-84
2022/03/12 07:12:32;;;;;;;12.93;7.70;;;-4.60;92.60;;;;;;5094871;28;20039;-83
2022/03/12 07:14:58;;;;;;;13.82;7.63;;;-4.40;92.30;;;;;;5094735;28;20379;-82
2022/03/12 07:17:24;;;;;;;14.73;7.38;;;-4.30;92.40;;;;;;5094526;28;20055;-84
2022/03/12 07:19:50;;;;;;;13.55;7.35;;;-4.10;92.20;;;;;;5094713;28;20181;-83
2022/03/12 07:22:16;;;;;;;13.65;7.93;;;-4.00;91.90;;;;;;5094499;28;20024;-84
2022/03/12 07:24:42;;;;;;;15.50;7.15;;;-3.90;91.60;;;;;;5093962;28;20489;-83
2022/03/12 07:27:08;;;;;;;14.77;6.80;;;-3.70;90.80;;;;;;5093822;28;20028;-84
2022/03/12 07:29:34;;;;;;;13.32;6.90;;;-3.60;89.90;;;;;;5094801;28;20050;-83
2022/03/12 07:32:00;;;;;;;17.85;8.30;;;-3.40;89.40;;;;;;5094663;28;20020;-84
2022/03/12 07:34:26;;;;;;;14.02;6.97;;;-3.20;88.10;;;;;;5094527;28;20031;-84
2022/03/12 07:36:52;;;;;;;12.73;6.30;;;-3.00;86.80;;;;;;5094309;28;20024;-84
2022/03/12 07:39:18;;;;;;;14.02;6.90;;;-2.80;86.60;;;;;;5093991;28;20429;-84
2022/03/12 07:41:44;;;;;;;17.17;7.18;;;-2.50;85.10;;;;;;5094432;28;20121;-83
2022/03/12 07:44:10;;;;;;;12.50;6.28;;;-2.50;83.40;;;;;;5093763;28;20060;-83
2022/03/12 07:46:35;;;;;;;11.43;6.22;;;-2.30;81.60;;;;;;5093756;28;20448;-82
2022/03/12 07:49:03;;;;;;;10.25;5.43;;;-2.10;80.10;;;;;;5094018;28;20419;-83
2022/03/12 07:51:29;;;;;;;20.15;6.85;;;-1.90;78.60;;;;;;5094105;28;20459;-83
2022/03/12 07:53:55;;;;;;;11.95;6.75;;;-1.90;78.00;;;;;;5094458;28;20024;-83
2022/03/12 07:56:21;;;;;;;12.50;6.57;;;-1.80;77.20;;;;;;5094443;28;20498;-84
2022/03/12 07:58:47;;;;;;;16.02;6.20;;;-1.70;78.20;;;;;;5094041;28;20024;-82
2022/03/12 08:01:13;;;;;;;11.32;5.90;;;-1.60;78.00;;;;;;5093990;28;20479;-83
2022/03/12 08:03:38;;;;;;;14.02;6.13;;;-1.40;77.60;;;;;;5093683;28;20027;-84
2022/03/12 08:06:09;;;;;;;12.90;5.80;;;-1.40;76.20;;;;;;5093595;28;20028;-83
2022/03/12 08:08:35;;;;;;;13.15;6.05;;;-1.30;75.80;;;;;;5093640;28;20471;-83
2022/03/12 08:13:46;;;;;;;13.95;6.05;;;-1.10;75.50;;;;;;5095144;28;20039;-83
2022/03/12 08:16:15;;;;;;;10.02;5.50;;;-1.00;74.00;;;;;;5093178;28;20024;-81
2022/03/12 08:18:41;;;;;;;11.85;6.45;;;-0.80;74.50;;;;;;5094215;28;20032;-82
2022/03/12 08:21:08;;;;;;;11.63;6.13;;;-0.70;73.00;;;;;;5093004;28;20021;-82
2022/03/12 08:23:35;;;;;;;9.93;5.15;;;-0.50;71.60;;;;;;5093433;28;20047;-82
2022/03/12 08:26:01;;;;;;;11.07;5.18;;;-0.40;70.50;;;;;;5093563;28;20032;-81
2022/03/12 08:28:28;;;;;;;12.18;6.03;;;-0.40;70.10;;;;;;5093230;28;20032;-82
2022/03/12 08:30:54;;;;;;;9.68;5.43;;;-0.20;70.00;;;;;;5097802;28;20391;-82
2022/03/12 08:33:20;;;;;;;9.35;5.13;;;1.00;88.20;;;;;;5097634;28;20024;-82
2022/03/12 08:35:47;;;;;;;11.13;5.78;;;1.30;68.50;;;;;;5096792;28;20027;-83
2022/03/12 08:38:12;;;;;;;10.55;6.05;;;1.30;65.10;;;;;;5096534;28;20035;-84
2022/03/12 08:40:38;;;;;;;9.90;5.70;;;1.20;64.10;;;;;;5096049;28;20471;-82
2022/03/12 08:43:04;;;;;;;10.68;6.10;;;1.10;64.50;;;;;;5096716;28;20024;-82
2022/03/12 08:45:30;;;;;;;8.93;5.43;;;1.00;64.90;;;;;;5096456;28;20012;-82
2022/03/12 08:47:56;;;;;;;8.10;4.97;;;1.00;63.90;;;;;;5096224;28;20051;-81
2022/03/12 08:50:24;;;;;;;11.40;5.72;;;1.00;63.60;;;;;;5096250;28;20021;-82
2022/03/12 08:52:51;;;;;;;12.98;5.82;;;1.00;63.90;;;;;;5096737;28;20028;-80
2022/03/12 08:55:16;;;;;;;10.38;5.40;;;1.00;62.70;;;;;;5096703;28;20103;-79
2022/03/12 08:57:42;;;;;;;14.57;8.50;;;1.80;80.10;;;;;;5097570;28;20067;-84
2022/03/12 09:00:11;;;;;;;12.13;5.38;;;2.40;64.20;;;;;;5098481;28;20028;-83
2022/03/12 09:02:38;;;;;;;11.93;6.82;;;2.40;59.60;;;;;;5099550;28;20069;-85
2022/03/12 09:05:06;;;;;;;11.10;6.35;;;2.20;59.00;;;;;;5097022;28;20028;-80
2022/03/12 09:07:33;;;;;;;9.23;4.80;;;2.10;59.80;;;;;;5096960;28;20043;-82
2022/03/12 09:09:59;;;;;;;9.90;5.78;;;2.00;59.10;;;;;;5096644;28;20028;-83
2022/03/12 09:12:25;;;;;;;12.27;5.25;;;1.90;58.50;;;;;;5101797;28;20032;-83
2022/03/12 09:14:54;;;;;;;7.32;4.20;;;1.90;58.60;;;;;;5114449;28;20494;-83
2022/03/12 09:17:20;;;;;;;9.90;4.35;;;1.90;58.00;;;;;;5112091;28;20028;-83
2022/03/12 09:19:46;;;;;;;8.60;4.13;;;2.00;56.00;;;;;;5110691;28;20028;-83
2022/03/12 09:22:12;;;;;;;7.10;3.95;;;2.00;54.60;;;;;;5111814;28;20028;-85
2022/03/12 09:24:40;;;;;;;7.53;3.88;;;2.20;55.00;;;;;;5098806;28;20016;-81
2022/03/12 09:27:06;;;;;;;7.07;4.22;;;2.60;68.30;;;;;;5100395;28;20115;-85
2022/03/12 09:29:32;;;;;;;6.75;3.95;;;3.10;55.70;;;;;;5102119;28;20579;-83
2022/03/12 09:31:59;;;;;;;8.23;4.80;;;3.00;51.50;;;;;;5100605;28;20016;-83
2022/03/12 09:34:25;;;;;;;7.30;3.90;;;3.00;52.50;;;;;;5098423;28;20065;-85
2022/03/12 09:36:51;;;;;;;9.52;5.00;;;3.00;52.20;;;;;;5098031;28;20115;-83
2022/03/12 09:39:16;;;;;;;7.25;4.47;;;3.00;51.90;;;;;;5097334;28;20554;-83
2022/03/12 09:41:43;;;;;;;6.53;4.65;;;3.00;52.30;;;;;;5097212;28;20482;-83
2022/03/12 09:44:09;;;;;;;6.85;4.40;;;3.10;52.80;;;;;;5096883;28;20020;-84
2022/03/12 09:46:37;;;;;;;8.85;4.72;;;3.10;50.80;;;;;;5095644;28;20121;-82
2022/03/12 09:49:04;;;;;;;7.75;4.65;;;3.10;50.60;;;;;;5096168;28;20028;-85
2022/03/12 09:51:31;;;;;;;9.90;5.30;;;3.10;51.10;;;;;;5097278;28;20070;-84
2022/03/12 09:53:58;;;;;;;8.13;4.32;;;2.90;50.00;;;;;;5096088;28;20085;-83
2022/03/12 09:56:24;;;;;;;8.52;4.55;;;3.00;50.80;;;;;;5095311;28;20463;-82
2022/03/12 09:58:50;;;;;;;9.40;4.70;;;3.10;51.20;;;;;;5096065;28;20020;-82
2022/03/12 10:01:16;;;;;;;10.80;4.43;;;3.10;51.50;;;;;;5095456;28;20024;-85
2022/03/12 10:03:42;;;;;;;9.48;4.72;;;3.20;52.00;;;;;;5094141;28;20379;-79
2022/03/12 10:06:10;;;;;;;7.72;4.88;;;3.40;55.20;;;;;;5093941;28;20016;-80
2022/03/12 10:08:36;;;;;;;5.93;4.03;;;3.60;59.50;;;;;;5094479;28;20173;-81
2022/03/12 10:11:01;;;;;;;10.80;5.57;;;3.80;52.00;;;;;;5094774;28;20111;-81
2022/03/12 10:13:27;;;;;;;6.85;4.20;;;3.90;48.90;;;;;;5094793;28;20020;-81
2022/03/12 10:15:53;;;;;;;6.80;4.00;;;3.80;47.80;;;;;;5094688;28;20054;-82
2022/03/12 10:18:20;;;;;;;9.15;5.03;;;3.90;48.90;;;;;;5094844;28;20020;-82
2022/03/12 10:20:46;;;;;;;8.18;4.10;;;3.90;48.60;;;;;;5095623;28;20016;-82
2022/03/12 10:23:12;;;;;;;6.78;4.15;;;3.90;48.10;;;;;;5094357;28;20085;-83
2022/03/12 10:25:38;;;;;;;9.23;3.97;;;4.10;48.20;;;;;;5095140;28;20024;-82
2022/03/12 10:28:04;;;;;;;7.10;4.03;;;4.10;47.20;;;;;;5098982;28;20493;-83
2022/03/12 10:30:30;;;;;;;8.48;4.90;;;4.20;47.40;;;;;;5097072;28;20020;-85
2022/03/12 10:32:56;;;;;;;7.70;4.32;;;4.20;47.40;;;;;;5096279;28;20078;-84
2022/03/12 10:35:23;;;;;;;6.95;3.97;;;4.20;46.10;;;;;;5096082;28;20016;-84
2022/03/12 10:37:51;;;;;;;10.43;6.10;;;4.20;45.00;;;;;;5097031;28;20383;-84
2022/03/12 10:40:20;;;;;;;7.03;4.57;;;4.20;46.60;;;;;;5097491;28;20008;-84
2022/03/12 10:42:54;;;;;;;7.10;4.68;;;4.40;46.00;;;;;;5097075;28;20057;-82
2022/03/12 10:45:26;;;;;;;7.63;4.18;;;4.40;46.20;;;;;;5095912;28;20103;-83
2022/03/12 10:47:55;;;;;;;9.15;3.70;;;4.50;45.40;;;;;;5093883;28;20196;-83
2022/03/12 10:50:26;;;;;;;6.82;4.65;;;4.50;45.20;;;;;;5094421;28;20055;-82
2022/03/12 10:52:55;;;;;;;9.45;4.20;;;4.60;45.10;;;;;;5093556;28;20032;-83
2022/03/12 10:55:33;;;;;;;7.85;3.85;;;4.70;45.10;;;;;;5093677;28;20020;-81
2022/03/12 10:58:15;;;;;;;7.25;4.55;;;4.70;44.10;;;;;;5094083;28;20024;-81
2022/03/12 11:00:40;;;;;;;7.65;3.90;;;4.70;43.30;;;;;;5093886;28;20035;-81
2022/03/12 11:03:13;;;;;;;6.65;4.15;;;4.80;43.90;;;;;;5093682;28;20024;-81
2022/03/12 11:05:41;;;;;;;6.32;4.07;;;4.90;44.00;;;;;;5093582;28;20038;-81
2022/03/12 11:08:07;;;;;;;7.63;4.22;;;4.90;42.50;;;;;;5093604;28;20032;-81
2022/03/12 11:10:37;;;;;;;5.82;3.50;;;5.00;42.40;;;;;;5094214;28;20022;-81
2022/03/12 11:13:03;;;;;;;6.15;3.95;;;4.90;41.60;;;;;;5093037;28;20379;-81
2022/03/12 11:15:32;;;;;;;7.95;4.65;;;5.00;43.60;;;;;;5092208;28;20111;-79
2022/03/12 11:18:03;;;;;;;8.95;4.93;;;5.30;47.50;;;;;;5091889;28;20056;-79
2022/03/12 11:20:35;;;;;;;6.20;4.05;;;5.50;43.10;;;;;;5091861;28;20020;-80
2022/03/12 11:23:27;;;;;;;5.38;3.95;;;5.30;42.80;;;;;;5091849;28;20024;-81
2022/03/12 11:25:56;;;;;;;6.47;3.47;;;5.40;42.30;;;;;;5091979;28;20050;-82
2022/03/12 11:28:22;;;;;;;5.10;3.83;;;5.40;41.00;;;;;;5091610;28;20559;-81
2022/03/12 11:30:48;;;;;;;6.20;3.47;;;5.40;41.30;;;;;;5091941;28;20073;-79
2022/03/12 11:33:14;;;;;;;4.75;2.90;;;5.40;40.40;;;;;;5092056;28;20028;-81
2022/03/12 11:35:45;;;;;;;4.20;2.45;;;5.50;39.20;;;;;;5092656;28;20364;-79
2022/03/12 11:38:20;;;;;;;2.90;2.38;;;5.70;37.50;;;;;;5091984;28;20121;-79
2022/03/12 11:41:05;;;;;;;3.75;2.45;;;5.80;38.00;;;;;;5091842;28;20028;-82
2022/03/12 11:43:37;;;;;;;4.33;2.80;;;5.90;36.50;;;;;;5091639;28;20016;-78
2022/03/12 11:46:05;;;;;;;6.45;3.00;;;5.90;37.10;;;;;;5092611;28;20273;-80
2022/03/12 11:48:32;;;;;;;3.78;2.42;;;5.90;36.50;;;;;;5091186;28;20096;-81
2022/03/12 11:51:01;;;;;;;4.28;2.70;;;5.80;36.80;;;;;;5091519;28;20020;-79
2022/03/12 11:53:31;;;;;;;4.82;2.72;;;5.80;36.90;;;;;;5092713;28;20031;-79
2022/03/12 11:55:59;;;;;;;3.67;2.03;;;5.80;36.70;;;;;;5091438;28;20020;-78
2022/03/12 11:58:25;;;;;;;2.85;1.98;;;5.90;34.10;;;;;;5091431;28;20154;-79
2022/03/12 12:00:51;;;;;;;1.92;1.70;;;5.90;33.80;;;;;;5092826;28;20052;-81
2022/03/12 12:03:17;;;;;;;5.35;2.33;;;5.90;35.70;;;;;;5093867;28;20020;-80
2022/03/12 12:05:46;;;;;;;6.10;2.45;;;6.00;35.90;;;;;;5095808;28;20028;-78
2022/03/12 12:08:13;;;;;;;3.15;2.03;;;6.10;36.30;;;;;;5096780;28;20070;-79
2022/03/12 12:10:42;;;;;;;3.88;2.15;;;6.10;36.10;;;;;;5096692;28;20028;-78
2022/03/12 12:13:09;;;;;;;10.02;3.28;;;6.20;36.20;;;;;;5095368;28;20097;-80
2022/03/12 12:15:36;;;;;;;5.88;3.17;;;6.30;37.40;;;;;;5096425;28;20047;-82
2022/03/12 12:18:10;;;;;;;3.08;2.55;;;6.30;38.10;;;;;;5096363;28;20043;-80
2022/03/12 12:20:36;;;;;;;4.55;2.40;;;6.40;37.00;;;;;;5095099;28;20024;-79
2022/03/12 12:23:03;;;;;;;3.30;2.10;;;6.40;36.20;;;;;;5095321;28;20483;-80
2022/03/12 12:25:37;;;;;;;3.45;2.30;;;6.40;35.20;;;;;;5095117;28;20452;-79
2022/03/12 12:28:23;;;;;;;3.95;2.75;;;6.40;35.00;;;;;;5094835;28;20040;-81
2022/03/12 12:30:53;;;;;;;4.57;3.17;;;6.40;34.70;;;;;;5094732;28;20035;-79
2022/03/12 12:33:32;;;;;;;5.38;2.60;;;6.50;35.10;;;;;;5094985;28;20050;-79
2022/03/12 12:36:15;;;;;;;2.45;2.17;;;6.60;35.70;;;;;;5094967;28;20024;-79
2022/03/12 12:39:03;;;;;;;3.35;2.42;;;6.60;35.60;;;;;;5095336;28;20031;-80
2022/03/12 12:41:54;;;;;;;7.00;3.20;;;6.60;35.50;;;;;;5095030;28;20023;-78
2022/03/12 12:44:39;;;;;;;2.92;2.13;;;6.70;35.00;;;;;;5096146;28;20471;-80
2022/03/12 12:47:06;;;;;;;5.70;2.90;;;6.60;34.60;;;;;;5094847;28;20517;-81
2022/03/12 12:49:40;;;;;;;3.15;2.15;;;6.60;35.10;;;;;;5095976;28;20029;-79
2022/03/12 12:52:07;;;;;;;4.15;2.42;;;6.60;35.30;;;;;;5094842;28;20039;-82